createdAt,value
2017-07-27T00:02:24.994Z,76.70
2017-07-27T00:04:52.647Z,77.90
2017-07-27T00:07:20.410Z,78.40
2017-07-27T00:09:47.979Z,77.70
2017-07-27T00:12:15.634Z,77.80
2017-07-27T00:14:43.193Z,77.40
2017-07-27T00:17:10.747Z,78.50
2017-07-27T00:19:38.417Z,78.30
2017-07-27T00:22:06.069Z,79.30
2017-07-27T00:24:33.619Z,80.10
2017-07-27T00:27:01.193Z,79.50
2017-07-27T00:29:28.738Z,78.90
2017-07-27T00:31:56.403Z,79.30
2017-07-27T00:34:23.973Z,80.30
2017-07-27T00:36:51.633Z,79.20
2017-07-27T00:39:19.177Z,77.70
2017-07-27T00:41:46.754Z,78.20
2017-07-27T00:44:14.474Z,78.60
2017-07-27T00:46:42.074Z,79.20
2017-07-27T00:49:09.618Z,80.10
2017-07-27T00:51:37.193Z,80.30
2017-07-27T00:54:04.846Z,80.00
2017-07-27T00:56:32.510Z,79.30
2017-07-27T00:59:00.079Z,77.90
2017-07-27T01:01:27.734Z,78.90
2017-07-27T01:03:55.391Z,79.40
2017-07-27T01:06:22.957Z,79.70
2017-07-27T01:08:50.709Z,81.10
2017-07-27T01:11:18.255Z,81.40
2017-07-27T01:13:45.834Z,81.10
2017-07-27T01:16:13.498Z,80.70
2017-07-27T01:18:41.047Z,79.50
2017-07-27T01:21:08.625Z,80.10
2017-07-27T01:23:36.278Z,79.70
2017-07-27T01:26:03.930Z,80.70
2017-07-27T01:28:31.482Z,80.70
2017-07-27T01:30:59.055Z,81.50
2017-07-27T01:33:26.630Z,81.60
2017-07-27T01:35:54.275Z,82.00
2017-07-27T01:38:21.934Z,81.30
2017-07-27T01:40:49.598Z,80.70
2017-07-27T01:43:17.254Z,82.70
2017-07-27T01:45:44.913Z,83.50
2017-07-27T01:48:12.482Z,83.00
2017-07-27T01:50:40.026Z,83.50
2017-07-27T01:53:07.597Z,83.60
2017-07-27T01:55:35.254Z,83.10
2017-07-27T01:58:02.917Z,81.00
2017-07-27T02:00:30.573Z,82.30
2017-07-27T02:02:58.122Z,83.10
2017-07-27T02:05:25.670Z,82.80
2017-07-27T02:07:53.258Z,83.30
2017-07-27T02:10:20.839Z,83.40
2017-07-27T02:12:49.198Z,82.50
2017-07-27T02:15:16.750Z,82.40
2017-07-27T02:17:44.294Z,82.50
2017-07-27T02:20:11.866Z,83.10
2017-07-27T02:22:39.533Z,82.90
2017-07-27T02:25:07.185Z,82.40
2017-07-27T02:27:34.730Z,84.60
2017-07-27T02:30:02.310Z,85.60
2017-07-27T02:32:29.974Z,86.90
2017-07-27T02:34:57.738Z,86.30
2017-07-27T02:37:25.281Z,84.20
2017-07-27T02:39:52.853Z,84.40
2017-07-27T02:42:20.505Z,84.40
2017-07-27T02:44:48.073Z,82.80
2017-07-27T02:47:15.734Z,82.70
2017-07-27T02:49:43.390Z,84.40
2017-07-27T02:52:10.953Z,85.70
2017-07-27T02:54:38.502Z,86.60
2017-07-27T02:57:06.074Z,85.00
2017-07-27T02:59:33.730Z,85.00
2017-07-27T03:02:01.282Z,84.70
2017-07-27T03:04:28.825Z,83.20
2017-07-27T03:06:56.374Z,81.70
2017-07-27T03:09:23.963Z,83.40
2017-07-27T03:11:51.627Z,83.70
2017-07-27T03:14:19.290Z,84.60
2017-07-27T03:16:46.953Z,84.50
2017-07-27T03:19:14.506Z,82.80
2017-07-27T03:21:42.071Z,83.70
2017-07-27T03:24:09.725Z,83.60
2017-07-27T03:26:37.285Z,84.90
2017-07-27T03:29:04.830Z,84.90
2017-07-27T03:31:32.401Z,83.80
2017-07-27T03:33:59.962Z,83.90
2017-07-27T03:36:27.538Z,84.80
2017-07-27T03:38:55.086Z,84.10
2017-07-27T03:41:22.638Z,83.60
2017-07-27T03:43:50.186Z,84.50
2017-07-27T03:46:17.730Z,84.00
2017-07-27T03:48:45.305Z,85.40
2017-07-27T03:51:12.874Z,84.50
2017-07-27T03:53:40.434Z,83.30
2017-07-27T03:56:07.982Z,81.60
2017-07-27T03:58:35.533Z,81.50
2017-07-27T04:01:03.213Z,82.70
2017-07-27T04:03:30.774Z,84.40
2017-07-27T04:05:58.430Z,84.10
2017-07-27T04:08:25.994Z,83.20
2017-07-27T04:10:53.653Z,83.50
2017-07-27T04:13:21.233Z,83.50
2017-07-27T04:15:48.875Z,83.50
2017-07-27T04:18:16.534Z,82.70
2017-07-27T04:20:44.194Z,83.80
2017-07-27T04:23:11.850Z,84.90
2017-07-27T04:25:39.513Z,85.30
2017-07-27T04:28:07.078Z,85.50
2017-07-27T04:30:34.631Z,85.50
2017-07-27T04:33:02.195Z,83.70
2017-07-27T04:35:29.850Z,82.50
2017-07-27T04:37:57.519Z,82.80
2017-07-27T04:40:25.063Z,83.30
2017-07-27T04:42:52.633Z,84.00
2017-07-27T04:45:20.205Z,82.90
2017-07-27T04:47:47.850Z,82.10
2017-07-27T04:50:15.514Z,83.00
2017-07-27T04:52:43.062Z,81.80
2017-07-27T04:55:10.629Z,81.70
2017-07-27T04:58:00.817Z,81.70
2017-07-27T05:00:28.389Z,81.40
2017-07-27T05:02:56.037Z,83.00
2017-07-27T05:05:23.610Z,83.80
2017-07-27T05:07:51.262Z,82.60
2017-07-27T05:10:18.928Z,82.70
2017-07-27T05:12:46.586Z,83.10
2017-07-27T05:15:14.246Z,83.50
2017-07-27T05:17:41.804Z,83.10
2017-07-27T05:20:09.464Z,82.40
2017-07-27T05:22:37.031Z,81.90
2017-07-27T05:25:04.578Z,83.10
2017-07-27T05:27:32.255Z,82.90
2017-07-27T05:29:59.907Z,83.00
2017-07-27T05:32:27.462Z,82.40
2017-07-27T05:34:55.015Z,83.10
2017-07-27T05:37:22.772Z,81.90
2017-07-27T05:39:50.754Z,81.10
2017-07-27T05:42:18.599Z,80.50
2017-07-27T05:44:46.694Z,81.00
2017-07-27T05:47:14.942Z,81.80
2017-07-27T05:49:42.981Z,81.50
2017-07-27T05:52:11.012Z,80.60
2017-07-27T05:54:38.774Z,80.80
2017-07-27T05:57:07.281Z,81.10
2017-07-27T05:59:36.138Z,81.20
2017-07-27T06:02:04.319Z,81.20
2017-07-27T06:04:32.490Z,81.00
2017-07-27T06:07:00.155Z,80.70
2017-07-27T06:09:27.806Z,80.30
2017-07-27T06:11:55.374Z,80.00
2017-07-27T06:14:23.037Z,79.80
2017-07-27T06:16:50.618Z,79.30
2017-07-27T06:19:18.973Z,79.20
2017-07-27T06:21:46.626Z,79.20
2017-07-27T06:24:14.178Z,79.70
2017-07-27T06:26:41.754Z,79.40
2017-07-27T06:29:09.330Z,79.80
2017-07-27T06:31:37.646Z,81.30
2017-07-27T06:34:05.242Z,80.50
2017-07-27T06:36:32.793Z,80.10
2017-07-27T06:39:00.362Z,80.10
2017-07-27T06:41:28.023Z,80.10
2017-07-27T06:43:55.683Z,79.90
2017-07-27T06:46:23.222Z,79.70
2017-07-27T06:48:50.773Z,78.90
2017-07-27T06:51:18.334Z,78.60
2017-07-27T06:53:45.910Z,78.70
2017-07-27T06:56:13.456Z,79.20
2017-07-27T06:58:41.017Z,79.20
2017-07-27T07:01:08.598Z,79.70
2017-07-27T07:03:36.258Z,80.20
2017-07-27T07:06:03.835Z,80.10
2017-07-27T07:08:31.483Z,79.80
2017-07-27T07:10:59.031Z,80.10
2017-07-27T07:13:26.584Z,80.90
2017-07-27T07:15:54.163Z,80.60
2017-07-27T07:18:21.739Z,80.70
2017-07-27T07:20:50.097Z,82.00
2017-07-27T07:23:17.753Z,81.40
2017-07-27T07:25:45.330Z,82.00
2017-07-27T07:28:13.647Z,82.30
2017-07-27T07:30:41.222Z,82.20
2017-07-27T07:33:08.810Z,82.20
2017-07-27T07:35:36.485Z,80.70
2017-07-27T07:38:04.039Z,80.00
2017-07-27T07:40:31.586Z,79.90
2017-07-27T07:42:59.161Z,79.40
2017-07-27T07:45:26.802Z,79.00
2017-07-27T07:47:54.469Z,78.70
2017-07-27T07:50:22.022Z,78.30
2017-07-27T07:52:49.573Z,79.60
2017-07-27T07:55:17.250Z,79.00
2017-07-27T07:57:44.903Z,78.30
2017-07-27T08:00:12.454Z,77.80
2017-07-27T08:02:40.030Z,78.80
2017-07-27T08:05:07.687Z,78.20
2017-07-27T08:07:35.288Z,77.70
2017-07-27T08:10:14.882Z,77.10
2017-07-27T08:12:42.545Z,76.50
2017-07-27T08:15:10.089Z,76.40
2017-07-27T08:17:37.662Z,76.10
2017-07-27T08:20:05.229Z,75.70
2017-07-27T08:22:32.891Z,75.00
2017-07-27T08:25:00.551Z,74.80
2017-07-27T08:27:28.114Z,74.80
2017-07-27T08:29:55.667Z,75.00
2017-07-27T08:32:23.354Z,74.80
2017-07-27T08:34:51.705Z,75.40
2017-07-27T08:37:19.285Z,75.30
2017-07-27T08:39:47.660Z,75.10
2017-07-27T08:42:15.298Z,74.30
2017-07-27T08:44:42.866Z,74.30
2017-07-27T08:47:10.423Z,74.40
2017-07-27T08:49:38.082Z,73.90
2017-07-27T08:52:05.751Z,73.20
2017-07-27T08:54:33.404Z,73.00
2017-07-27T08:57:00.950Z,71.70
2017-07-27T08:59:28.497Z,70.90
2017-07-27T09:01:56.077Z,70.90
2017-07-27T09:04:23.742Z,71.80
2017-07-27T09:06:51.289Z,72.80
2017-07-27T09:09:18.853Z,73.20
2017-07-27T09:11:46.414Z,74.30
2017-07-27T09:14:13.988Z,73.40
2017-07-27T09:16:41.639Z,71.80
2017-07-27T09:19:09.298Z,71.30
2017-07-27T09:21:36.962Z,69.20
2017-07-27T09:24:04.515Z,69.60
2017-07-27T09:26:32.094Z,68.40
2017-07-27T09:28:59.656Z,69.00
2017-07-27T09:31:27.207Z,67.20
2017-07-27T09:33:54.854Z,67.70
2017-07-27T09:36:22.407Z,68.10
2017-07-27T09:38:50.078Z,68.20
2017-07-27T09:41:17.744Z,67.30
2017-07-27T09:43:45.398Z,68.50
2017-07-27T09:46:12.947Z,68.20
2017-07-27T09:48:40.518Z,68.00
2017-07-27T09:51:08.173Z,68.10
2017-07-27T09:53:35.718Z,67.80
2017-07-27T09:56:03.298Z,67.10
2017-07-27T09:58:30.954Z,66.80
2017-07-27T10:00:58.522Z,66.80
2017-07-27T10:03:26.093Z,65.90
2017-07-27T10:05:53.638Z,65.80
2017-07-27T10:08:21.187Z,65.10
2017-07-27T10:10:48.738Z,64.10
2017-07-27T10:13:16.313Z,64.00
2017-07-27T10:15:43.970Z,63.90
2017-07-27T10:18:11.532Z,63.60
2017-07-27T10:20:39.189Z,63.40
2017-07-27T10:23:06.750Z,64.30
2017-07-27T10:25:34.298Z,64.90
2017-07-27T10:28:01.902Z,64.50
2017-07-27T10:30:30.245Z,63.90
2017-07-27T10:32:57.795Z,63.90
2017-07-27T10:35:25.347Z,64.10
2017-07-27T10:37:52.923Z,64.00
2017-07-27T10:40:20.590Z,64.20
2017-07-27T10:42:48.144Z,62.60
2017-07-27T10:45:15.717Z,62.70
2017-07-27T10:47:43.266Z,63.00
2017-07-27T10:50:10.918Z,62.70
2017-07-27T10:52:38.585Z,61.60
2017-07-27T10:55:06.251Z,62.90
2017-07-27T10:57:33.905Z,61.90
2017-07-27T11:00:01.466Z,60.90
2017-07-27T11:02:29.018Z,60.90
2017-07-27T11:04:56.687Z,60.90
2017-07-27T11:07:24.345Z,62.20
2017-07-27T11:09:51.914Z,61.70
2017-07-27T11:12:19.562Z,61.30
2017-07-27T11:14:47.126Z,59.70
2017-07-27T11:17:14.702Z,59.00
2017-07-27T11:19:42.250Z,58.60
2017-07-27T11:22:09.907Z,57.60
2017-07-27T11:24:37.565Z,58.40
2017-07-27T11:27:05.223Z,59.50
2017-07-27T11:29:32.884Z,61.00
2017-07-27T11:32:00.448Z,61.70
2017-07-27T11:34:28.110Z,63.00
2017-07-27T11:36:55.769Z,63.50
2017-07-27T11:39:23.435Z,64.10
2017-07-27T11:41:51.094Z,63.60
2017-07-27T11:44:18.641Z,61.80
2017-07-27T11:46:46.181Z,60.70
2017-07-27T11:49:13.726Z,60.80
2017-07-27T11:51:41.330Z,59.80
2017-07-27T11:54:08.996Z,59.40
2017-07-27T11:56:36.651Z,57.50
2017-07-27T11:59:04.194Z,59.50
2017-07-27T12:01:31.742Z,59.40
2017-07-27T12:03:59.327Z,59.80
2017-07-27T12:06:26.990Z,58.90
2017-07-27T12:08:54.650Z,59.00
2017-07-27T12:11:22.310Z,58.50
2017-07-27T12:13:49.858Z,57.50
2017-07-27T12:16:17.402Z,57.60
2017-07-27T12:18:45.090Z,57.60
2017-07-27T12:21:12.646Z,58.40
2017-07-27T12:23:40.194Z,58.40
2017-07-27T12:26:07.770Z,58.20
2017-07-27T12:28:35.421Z,58.20
2017-07-27T12:31:03.086Z,57.10
2017-07-27T12:33:30.746Z,56.90
2017-07-27T12:35:58.306Z,56.90
2017-07-27T12:38:25.873Z,57.90
2017-07-27T12:40:53.533Z,57.50
2017-07-27T12:43:21.106Z,56.70
2017-07-27T12:45:48.754Z,56.50
2017-07-27T12:48:16.418Z,57.20
2017-07-27T12:50:44.070Z,56.50
2017-07-27T12:53:11.622Z,57.10
2017-07-27T12:55:39.198Z,57.70
2017-07-27T12:58:06.851Z,56.80
2017-07-27T13:00:34.510Z,57.60
2017-07-27T13:03:02.058Z,58.70
2017-07-27T13:05:29.637Z,58.00
2017-07-27T13:07:57.290Z,58.40
2017-07-27T13:10:24.949Z,58.70
2017-07-27T13:12:52.619Z,58.90
2017-07-27T13:15:20.167Z,58.60
2017-07-27T13:17:47.730Z,57.90
2017-07-27T13:20:15.303Z,57.50
2017-07-27T13:22:43.670Z,58.50
2017-07-27T13:25:11.405Z,58.50
2017-07-27T13:27:38.990Z,58.70
2017-07-27T13:30:06.540Z,58.70
2017-07-27T13:32:34.211Z,58.50
2017-07-27T13:35:01.773Z,58.50
2017-07-27T13:37:29.431Z,58.80
2017-07-27T13:39:56.978Z,59.00
2017-07-27T13:42:24.528Z,59.40
2017-07-27T13:44:52.099Z,59.80
2017-07-27T13:47:19.654Z,59.70
2017-07-27T13:49:47.206Z,60.90
2017-07-27T13:52:14.794Z,62.30
2017-07-27T13:54:42.345Z,61.80
2017-07-27T13:57:10.006Z,61.10
2017-07-27T13:59:37.671Z,61.30
2017-07-27T14:02:05.229Z,60.60
2017-07-27T14:04:32.783Z,61.60
2017-07-27T14:07:00.446Z,62.00
2017-07-27T14:09:28.022Z,62.30
2017-07-27T14:11:55.661Z,61.90
2017-07-27T14:14:23.230Z,62.20
2017-07-27T14:16:50.882Z,63.20
2017-07-27T14:19:18.520Z,62.20
2017-07-27T14:21:46.094Z,61.20
2017-07-27T14:24:13.667Z,61.10
2017-07-27T14:26:41.324Z,60.60
2017-07-27T14:29:08.870Z,60.30
2017-07-27T14:31:36.448Z,60.50
2017-07-27T14:34:04.114Z,60.40
2017-07-27T14:36:31.767Z,59.70
2017-07-27T14:38:59.426Z,60.10
2017-07-27T14:41:27.093Z,60.00
2017-07-27T14:43:54.726Z,60.60
2017-07-27T14:46:22.405Z,60.10
2017-07-27T14:48:49.973Z,60.10
2017-07-27T14:51:17.631Z,60.40
2017-07-27T14:53:45.202Z,60.50
2017-07-27T14:56:12.747Z,60.90
2017-07-27T14:58:40.316Z,61.10
2017-07-27T15:01:07.866Z,60.60
2017-07-27T15:03:35.414Z,61.30
2017-07-27T15:06:02.985Z,61.80
2017-07-27T15:08:30.646Z,61.60
2017-07-27T15:10:58.242Z,61.20
2017-07-27T15:13:25.798Z,61.20
2017-07-27T15:15:54.118Z,61.80
2017-07-27T15:18:21.707Z,61.70
2017-07-27T15:20:49.358Z,62.00
2017-07-27T15:23:17.019Z,62.10
2017-07-27T15:25:44.573Z,61.70
2017-07-27T15:28:12.246Z,61.20
2017-07-27T15:30:39.916Z,61.50
2017-07-27T15:33:07.562Z,63.10
2017-07-27T15:35:35.131Z,63.50
2017-07-27T15:38:02.785Z,64.00
2017-07-27T15:40:30.452Z,63.50
2017-07-27T15:42:58.106Z,63.40
2017-07-27T15:45:25.674Z,63.40
2017-07-27T15:47:53.262Z,62.90
2017-07-27T15:50:21.611Z,64.80
2017-07-27T15:52:49.267Z,64.70
2017-07-27T15:55:16.922Z,65.70
2017-07-27T15:57:44.481Z,64.70
2017-07-27T16:00:12.062Z,66.00
2017-07-27T16:02:39.619Z,65.90
2017-07-27T16:05:07.265Z,65.50
2017-07-27T16:07:34.825Z,64.60
2017-07-27T16:10:02.486Z,65.30
2017-07-27T16:12:30.160Z,66.00
2017-07-27T16:14:57.812Z,65.40
2017-07-27T16:17:25.471Z,64.60
2017-07-27T16:19:53.128Z,65.30
2017-07-27T16:22:20.798Z,65.80
2017-07-27T16:24:48.380Z,65.70
2017-07-27T16:27:16.731Z,66.00
2017-07-27T16:29:44.282Z,66.80
2017-07-27T16:32:11.846Z,65.60
2017-07-27T16:34:39.402Z,65.60
2017-07-27T16:37:07.082Z,65.30
2017-07-27T16:39:34.730Z,65.20
2017-07-27T16:42:02.273Z,65.70
2017-07-27T16:44:29.841Z,66.60
2017-07-27T16:46:57.506Z,66.20
2017-07-27T16:49:25.087Z,66.60
2017-07-27T16:51:53.410Z,68.50
2017-07-27T16:54:20.988Z,67.70
2017-07-27T16:56:48.566Z,68.20
2017-07-27T16:59:16.226Z,69.30
2017-07-27T17:01:43.881Z,69.30
2017-07-27T17:04:11.435Z,68.40
2017-07-27T17:06:38.991Z,68.90
2017-07-27T17:09:06.546Z,68.80
2017-07-27T17:11:34.093Z,69.30
2017-07-27T17:14:01.679Z,70.00
2017-07-27T17:16:29.221Z,70.00
2017-07-27T17:18:56.789Z,70.20
2017-07-27T17:21:24.351Z,70.40
2017-07-27T17:23:51.902Z,70.60
2017-07-27T17:26:19.480Z,69.80
2017-07-27T17:28:47.048Z,69.50
2017-07-27T17:31:14.598Z,71.70
2017-07-27T17:33:42.275Z,71.90
2017-07-27T17:36:10.632Z,72.50
2017-07-27T17:38:38.290Z,72.00
2017-07-27T17:41:05.958Z,71.10
2017-07-27T17:43:33.514Z,71.00
2017-07-27T17:46:01.174Z,70.10
2017-07-27T17:48:28.731Z,70.40
2017-07-27T17:50:56.303Z,70.10
2017-07-27T17:53:23.858Z,71.30
2017-07-27T17:55:51.413Z,71.30
2017-07-27T17:58:19.065Z,72.60
2017-07-27T18:00:46.626Z,72.80
2017-07-27T18:03:14.298Z,71.70
2017-07-27T18:05:42.274Z,71.00
2017-07-27T18:08:09.922Z,70.50
2017-07-27T18:10:38.871Z,69.20
2017-07-27T18:13:06.478Z,69.10
2017-07-27T18:15:34.131Z,69.10
2017-07-27T18:18:01.686Z,69.70
2017-07-27T18:20:29.238Z,70.80
2017-07-27T18:22:57.022Z,72.10
2017-07-27T18:25:24.778Z,73.10
2017-07-27T18:27:52.634Z,74.10
2017-07-27T18:30:20.367Z,74.50
2017-07-27T18:32:48.345Z,74.40
2017-07-27T18:35:16.229Z,73.10
2017-07-27T18:37:43.817Z,72.50
2017-07-27T18:40:11.538Z,74.50
2017-07-27T18:42:39.130Z,74.80
2017-07-27T18:45:06.786Z,74.70
2017-07-27T18:47:34.446Z,74.30
2017-07-27T18:50:02.184Z,73.90
2017-07-27T18:52:31.064Z,73.80
2017-07-27T18:54:58.954Z,73.70
2017-07-27T18:57:26.586Z,72.90
2017-07-27T18:59:54.360Z,72.20
2017-07-27T19:02:21.922Z,71.80
2017-07-27T19:04:49.524Z,72.60
2017-07-27T19:07:17.891Z,72.30
2017-07-27T19:09:45.450Z,72.30
2017-07-27T19:12:13.043Z,72.80
2017-07-27T19:14:40.727Z,73.30
2017-07-27T19:17:08.415Z,73.00
2017-07-27T19:19:36.399Z,72.80
2017-07-27T19:22:04.542Z,73.10
2017-07-27T19:24:32.408Z,73.10
2017-07-27T19:27:00.009Z,72.50
2017-07-27T19:29:27.663Z,72.90
2017-07-27T19:31:55.322Z,73.50
2017-07-27T19:34:22.982Z,73.10
2017-07-27T19:36:50.540Z,72.90
2017-07-27T19:39:18.303Z,73.40
2017-07-27T19:41:46.166Z,73.10
2017-07-27T19:44:14.096Z,72.40
2017-07-27T19:46:42.002Z,72.10
2017-07-27T19:49:09.878Z,72.40
2017-07-27T19:51:37.706Z,71.90
2017-07-27T19:54:05.286Z,71.50
2017-07-27T19:56:32.839Z,72.60
2017-07-27T19:59:00.409Z,72.50
2017-07-27T20:01:28.283Z,71.80
2017-07-27T20:03:55.931Z,72.80
2017-07-27T20:06:24.008Z,74.20
2017-07-27T20:08:51.835Z,73.90
2017-07-27T20:11:19.438Z,74.20
2017-07-27T20:13:47.110Z,74.00
2017-07-27T20:16:15.035Z,75.00
2017-07-27T20:18:42.838Z,75.20
2017-07-27T20:21:10.399Z,74.70
2017-07-27T20:23:38.045Z,74.00
2017-07-27T20:26:05.706Z,73.90
2017-07-27T20:28:33.264Z,74.70
2017-07-27T20:31:01.138Z,74.70
2017-07-27T20:33:29.113Z,75.30
2017-07-27T20:35:56.867Z,75.70
2017-07-27T20:38:24.584Z,75.50
2017-07-27T20:40:53.194Z,75.60
2017-07-27T20:43:21.913Z,76.10
2017-07-27T20:45:49.665Z,75.60
2017-07-27T20:48:17.322Z,74.70
2017-07-27T20:50:44.987Z,75.20
2017-07-27T20:53:12.750Z,74.50
2017-07-27T20:55:40.572Z,74.80
2017-07-27T20:58:08.378Z,75.00
2017-07-27T21:00:36.038Z,74.70
2017-07-27T21:03:03.697Z,74.30
2017-07-27T21:05:31.362Z,73.80
2017-07-27T21:07:58.938Z,73.30
2017-07-27T21:10:26.582Z,73.20
2017-07-27T21:12:54.243Z,73.00
2017-07-27T21:15:21.901Z,73.50
2017-07-27T21:17:49.453Z,73.20
2017-07-27T21:20:17.034Z,72.90
2017-07-27T21:22:44.592Z,72.70
2017-07-27T21:25:12.242Z,72.50
2017-07-27T21:27:39.802Z,72.60
2017-07-27T21:30:08.149Z,73.10
2017-07-27T21:32:35.729Z,73.00
2017-07-27T21:35:03.303Z,74.40
2017-07-27T21:37:30.861Z,78.00
2017-07-27T21:39:58.518Z,77.90
2017-07-27T21:42:26.087Z,80.00
2017-07-27T21:44:53.673Z,80.80
2017-07-27T21:47:21.310Z,80.60
2017-07-27T21:49:48.953Z,81.40
2017-07-27T21:52:16.617Z,82.20
2017-07-27T21:54:44.171Z,81.40
2017-07-27T21:57:11.839Z,80.70
2017-07-27T21:59:39.505Z,81.80
2017-07-27T22:02:07.131Z,82.40
2017-07-27T22:04:34.697Z,82.10
2017-07-27T22:07:03.194Z,81.00
2017-07-27T22:09:30.774Z,81.30
2017-07-27T22:11:58.423Z,80.90
2017-07-27T22:14:25.979Z,81.70
2017-07-27T22:16:53.642Z,81.50
2017-07-27T22:19:21.195Z,80.90
2017-07-27T22:21:48.774Z,80.60
2017-07-27T22:24:16.418Z,79.70
2017-07-27T22:26:44.074Z,79.40
2017-07-27T22:29:11.669Z,79.80
2017-07-27T22:31:40.018Z,79.40
2017-07-27T22:34:07.682Z,79.40
2017-07-27T22:36:35.338Z,79.00
2017-07-27T22:39:02.999Z,78.40
2017-07-27T22:41:30.557Z,77.90
2017-07-27T22:43:58.218Z,77.90
2017-07-27T22:46:25.879Z,78.30
2017-07-27T22:48:53.542Z,78.90
2017-07-27T22:51:21.206Z,78.90
2017-07-27T22:53:48.857Z,78.50
2017-07-27T22:56:16.431Z,77.90
2017-07-27T22:58:44.006Z,77.90
2017-07-27T23:01:12.334Z,80.30
2017-07-27T23:03:39.925Z,80.30
2017-07-27T23:06:07.481Z,80.70
2017-07-27T23:08:35.026Z,80.70
2017-07-27T23:11:02.694Z,81.50
2017-07-27T23:13:30.263Z,81.10
2017-07-27T23:15:57.917Z,80.70
2017-07-27T23:18:25.578Z,80.40
2017-07-27T23:20:53.242Z,79.80
2017-07-27T23:23:20.902Z,80.90
2017-07-27T23:25:48.567Z,80.40
2017-07-27T23:28:16.230Z,80.20
2017-07-27T23:30:43.891Z,81.00
2017-07-27T23:33:11.546Z,81.20
2017-07-27T23:35:39.132Z,81.30
2017-07-27T23:38:07.470Z,79.70
2017-07-27T23:40:35.023Z,79.70
2017-07-27T23:43:02.610Z,79.10
2017-07-27T23:45:30.262Z,79.10
2017-07-27T23:47:57.921Z,79.20
2017-07-27T23:50:25.586Z,79.40
2017-07-27T23:52:53.146Z,78.80
2017-07-27T23:55:20.808Z,79.10
2017-07-27T23:57:48.473Z,80.00
